Home > Products > Valid Products > MTR

000
SAUS45 KREV 301155
MTRDRA
METAR KDRA 301153Z AUTO VRB04KT 10SM CLR 27/11 A3010 RMK AO2 SLP134
T02720106 10306 20272 53007





000
SAUS45 KREV 301055
MTRDRA
METAR KDRA 301053Z AUTO 23007KT 10SM CLR 29/10 A3009 RMK AO2 SLP129
T02890100





000
SAUS45 KREV 301055
MTRDRA
METAR KDRA 301053Z AUTO 23007KT 10SM CLR 29/10 A3009 RMK AO2 SLP129
T02890100





000
SAUS45 KREV 300954
MTRDRA
METAR KDRA 300953Z AUTO 22010KT 10SM CLR 29/09 A3008 RMK AO2 SLP125
T02940094





000
SAUS45 KREV 300954
MTRDRA
METAR KDRA 300953Z AUTO 22010KT 10SM CLR 29/09 A3008 RMK AO2 SLP125
T02940094





000
SAUS45 KREV 300855
MTRDRA
METAR KDRA 300853Z AUTO 21013G20KT 10SM CLR 31/07 A3008 RMK AO2
SLP123 T03060072 52007





000
SAUS45 KREV 300756
MTRDRA
METAR KDRA 300753Z AUTO 22014KT 10SM CLR 29/08 A3007 RMK AO2 SLP123
T02940078 403890189





000
SAUS45 KREV 300654
MTRDRA
METAR KDRA 300653Z AUTO 24015KT 10SM CLR 31/06 A3006 RMK AO2 SLP120
T03060061





000
SAUS45 KREV 300654
MTRDRA
METAR KDRA 300653Z AUTO 24015KT 10SM CLR 31/06 A3006 RMK AO2 SLP120
T03060061





000
SAUS45 KREV 300555
MTRDRA
METAR KDRA 300553Z AUTO 24009KT 10SM CLR 31/06 A3005 RMK AO2 SLP118
T03060061 10383 20306 51014





000
SAUS45 KREV 300454
MTRDRA
METAR KDRA 300453Z AUTO 24013KT 10SM CLR 32/06 A3005 RMK AO2 SLP118
T03170061





000
SAUS45 KREV 300354
MTRDRA
METAR KDRA 300353Z AUTO 25004KT 10SM CLR 33/04 A3003 RMK AO2 SLP111
T03280039





000
SAUS45 KREV 300254
MTRDRA
METAR KDRA 300253Z AUTO 20015G24KT 10SM CLR 33/05 A3001 RMK AO2
SLP105 T03330050 53002





000
SAUS45 KREV 300154
MTRDRA
METAR KDRA 300153Z AUTO 21016G20KT 10SM CLR 36/04 A3000 RMK AO2
SLP101 T03610044





000
SAUS45 KREV 300056
MTRDRA
METAR KDRA 300053Z AUTO 25005KT 10SM CLR 37/M02 A3000 RMK AO2 SLP103
T03721022





000
SAUS45 KREV 292355
MTRDRA
METAR KDRA 292353Z AUTO 00000KT 10SM CLR 38/M03 A3000 RMK AO2 SLP105
T03831028 10389 20344 56018





000
SAUS45 KREV 292255
MTRDRA
METAR KDRA 292253Z AUTO VRB04KT 10SM CLR 38/M03 A3002 RMK AO2 SLP111
T03831033





000
SAUS45 KREV 292155
MTRDRA
METAR KDRA 292153Z AUTO 34005KT 10SM CLR 38/M03 A3004 RMK AO2 SLP117
T03831033





000
SAUS45 KREV 292054
MTRDRA
METAR KDRA 292053Z AUTO 24006KT 10SM CLR 38/M03 A3006 RMK AO2 SLP124
T03781033 58012





000
SAUS45 KREV 291954
MTRDRA
METAR KDRA 291953Z AUTO 18007KT 140V230 10SM CLR 37/M03 A3008 RMK
AO2 SLP130 T03721033





000
SAUS45 KREV 291854
MTRDRA
METAR KDRA 291853Z AUTO 15006KT 10SM CLR 36/M04 A3009 RMK AO2 SLP135
T03561039





000
SAUS45 KREV 291854
MTRDRA
METAR KDRA 291853Z AUTO 15006KT 10SM CLR 36/M04 A3009 RMK AO2 SLP135
T03561039





000
SAUS45 KREV 291755
MTRDRA
METAR KDRA 291753Z AUTO VRB03KT 10SM CLR 35/M04 A3010 RMK AO2 SLP139
T03501039 10356 20189 50003





000
SAUS45 KREV 291655
MTRDRA
METAR KDRA 291653Z AUTO 33004KT 10SM CLR 32/M04 A3010 RMK AO2 SLP139
T03221039





000
SAUS45 KREV 291554
MTRDRA
METAR KDRA 291553Z AUTO 03006KT 10SM CLR 31/M03 A3010 RMK AO2 SLP138
T03111033





000
SAUS45 KREV 291454
MTRDRA
METAR KDRA 291453Z AUTO 04010KT 10SM CLR 28/M04 A3009 RMK AO2 SLP135
T02831039 51016





000
SAUS45 KREV 291454
MTRDRA
METAR KDRA 291453Z AUTO 04010KT 10SM CLR 28/M04 A3009 RMK AO2 SLP135
T02831039 51016





000
SAUS45 KREV 291354
MTRDRA
METAR KDRA 291353Z AUTO 04014KT 10SM CLR 26/M04 A3007 RMK AO2 SLP127
T02611039





000
SAUS45 KREV 291254
MTRDRA
METAR KDRA 291253Z AUTO 07009KT 10SM CLR 23/M04 A3005 RMK AO2 SLP123
T02331044





000
SAUS45 KREV 291254
MTRDRA
METAR KDRA 291253Z AUTO 07009KT 10SM CLR 23/M04 A3005 RMK AO2 SLP123
T02331044





000
SAUS45 KREV 291155
MTRDRA
METAR KDRA 291153Z AUTO 07006KT 10SM CLR 22/M03 A3003 RMK AO2 SLP118
T02171033 10267 20200 53007





000
SAUS45 KREV 291055
MTRDRA
METAR KDRA 291053Z AUTO 09006KT 10SM CLR 21/M02 A3002 RMK AO2 SLP114
T02111022





000
SAUS45 KREV 290954
MTRDRA
METAR KDRA 290953Z AUTO 05005KT 10SM CLR 23/M03 A3001 RMK AO2 SLP109
T02281028





000
SAUS45 KREV 290855
MTRDRA
METAR KDRA 290853Z AUTO 05004KT 10SM CLR 23/M03 A3001 RMK AO2 SLP110
T02331033 51004





000
SAUS45 KREV 290754
MTRDRA
METAR KDRA 290753Z AUTO 00000KT 10SM CLR 23/M03 A3001 RMK AO2 SLP110
T02331028 403670194





000
SAUS45 KREV 290655
MTRDRA
METAR KDRA 290653Z AUTO 02006KT 10SM CLR 24/M03 A3001 RMK AO2 SLP109
T02441033





000
SAUS45 KREV 290555
MTRDRA
METAR KDRA 290553Z AUTO 09003KT 10SM CLR 25/M03 A3000 RMK AO2 SLP106
T02501033 10367 20250 51016





000
SAUS45 KREV 290555
MTRDRA
METAR KDRA 290553Z AUTO 09003KT 10SM CLR 25/M03 A3000 RMK AO2 SLP106
T02501033 10367 20250 51016





000
SAUS45 KREV 290454
MTRDRA
METAR KDRA 290453Z AUTO 06005KT 10SM CLR 27/M03 A2999 RMK AO2 SLP102
T02721028





000
SAUS45 KREV 290454
MTRDRA
METAR KDRA 290453Z AUTO 06005KT 10SM CLR 27/M03 A2999 RMK AO2 SLP102
T02721028





000
SAUS45 KREV 290354
MTRDRA
METAR KDRA 290353Z AUTO 35004KT 10SM CLR 29/M04 A2996 RMK AO2 SLP094
T02941039





000
SAUS45 KREV 290354
MTRDRA
METAR KDRA 290353Z AUTO 35004KT 10SM CLR 29/M04 A2996 RMK AO2 SLP094
T02941039





000
SAUS45 KREV 290254
MTRDRA
METAR KDRA 290253Z AUTO 24005KT 10SM CLR 32/M05 A2995 RMK AO2 SLP088
T03171050 53001





000
SAUS45 KREV 290245
MTRDRA
SPECI KDRA 290244Z AUTO 24006KT 10SM FEW001 33/M05 A2994 RMK AO2
T03281050





000
SAUS45 KREV 290154
MTRDRA
METAR KDRA 290153Z AUTO 27009KT 10SM CLR 35/M06 A2993 RMK AO2 SLP082
T03501061





000
SAUS45 KREV 290154
MTRDRA
METAR KDRA 290153Z AUTO 27009KT 10SM CLR 35/M06 A2993 RMK AO2 SLP082
T03501061





000
SAUS45 KREV 290055
MTRDRA
METAR KDRA 290053Z AUTO 00000KT 10SM CLR 36/M06 A2993 RMK AO2 SLP082
T03611056





000
SAUS45 KREV 282354
MTRDRA
METAR KDRA 282353Z AUTO VRB05KT 10SM CLR 36/M05 A2994 RMK AO2 SLP084
T03611050 10367 20317 56016





000
SAUS45 KREV 282255
MTRDRA
METAR KDRA 282253Z AUTO 18006KT 10SM CLR 37/M04 A2996 RMK AO2 SLP088
T03671044





000
SAUS45 KREV 282155
MTRDRA
METAR KDRA 282153Z AUTO VRB03KT 10SM CLR 36/M04 A2998 RMK AO2 SLP100
T03561039





000
SAUS45 KREV 282054
MTRDRA
METAR KDRA 282053Z AUTO 23007KT 10SM CLR 35/M04 A3000 RMK AO2 SLP103
T03501039 58010





000
SAUS45 KREV 281954
MTRDRA
METAR KDRA 281953Z AUTO 18006KT 10SM CLR 34/M05 A3001 RMK AO2 SLP112
T03441050





000
SAUS45 KREV 281954
MTRDRA
METAR KDRA 281953Z AUTO 18006KT 10SM CLR 34/M05 A3001 RMK AO2 SLP112
T03441050





000
SAUS45 KREV 281854
MTRDRA
METAR KDRA 281853Z AUTO 13005KT 10SM CLR 33/M04 A3002 RMK AO2 SLP115
T03331044





000
SAUS45 KREV 281754
MTRDRA
METAR KDRA 281753Z AUTO 12006KT 10SM CLR 32/M03 A3003 RMK AO2 SLP117
T03221033 10328 20233 51001





000
SAUS45 KREV 281655
MTRDRA
METAR KDRA 281653Z AUTO 03011KT 10SM CLR 31/M02 A3003 RMK AO2 SLP116
T03061022





000
SAUS45 KREV 281554
MTRDRA
METAR KDRA 281553Z AUTO 03013KT 10SM CLR 28/M02 A3004 RMK AO2 SLP119
T02831022





000
SAUS45 KREV 281456
MTRDRA
METAR KDRA 281453Z AUTO 04013KT 10SM CLR 26/M03 A3002 RMK AO2 SLP115
T02611033 51018





000
SAUS45 KREV 281354
MTRDRA
METAR KDRA 281353Z AUTO 05013KT 10SM CLR 24/M04 A3001 RMK AO2 SLP107
T02441039





000
SAUS45 KREV 281354
MTRDRA
METAR KDRA 281353Z AUTO 05013KT 10SM CLR 24/M04 A3001 RMK AO2 SLP107
T02441039





000
SAUS45 KREV 281254
MTRDRA
METAR KDRA 281253Z AUTO 04011KT 10SM CLR 23/M05 A2999 RMK AO2 SLP102
T02331050





000
SAUS45 KREV 281254
MTRDRA
METAR KDRA 281253Z AUTO 04011KT 10SM CLR 23/M05 A2999 RMK AO2 SLP102
T02331050





000
SAUS45 KREV 281155
MTRDRA
METAR KDRA 281153Z AUTO 04009KT 10SM CLR 24/M06 A2997 RMK AO2 SLP093
T02441056 10256 20194 53008





000
SAUS45 KREV 281155
MTRDRA
METAR KDRA 281153Z AUTO 04009KT 10SM CLR 24/M06 A2997 RMK AO2 SLP093
T02441056 10256 20194 53008





000
SAUS45 KREV 281055
MTRDRA
METAR KDRA 281053Z AUTO 02011KT 10SM CLR 24/M06 A2995 RMK AO2 SLP086
T02441061





000
SAUS45 KREV 281055
MTRDRA
METAR KDRA 281053Z AUTO 02011KT 10SM CLR 24/M06 A2995 RMK AO2 SLP086
T02441061





000
SAUS45 KREV 280954
MTRDRA
METAR KDRA 280953Z AUTO 00000KT 10SM CLR 21/M06 A2994 RMK AO2 SLP087
T02111056





000
SAUS45 KREV 280855
MTRDRA
METAR KDRA 280853Z AUTO 03009KT 10SM CLR 25/M08 A2994 RMK AO2 SLP085
T02501083 51006





000
SAUS45 KREV 280855
MTRDRA
METAR KDRA 280853Z AUTO 03009KT 10SM CLR 25/M08 A2994 RMK AO2 SLP085
T02501083 51006





000
SAUS45 KREV 280754
MTRDRA
METAR KDRA 280753Z AUTO 00000KT 10SM CLR 22/M06 A2994 RMK AO2 SLP086
T02221056 403610211





000
SAUS45 KREV 280654
MTRDRA
METAR KDRA 280653Z AUTO 36004KT 10SM CLR 23/M05 A2993 RMK AO2 SLP086
T02281050





000
SAUS45 KREV 280654
MTRDRA
METAR KDRA 280653Z AUTO 36004KT 10SM CLR 23/M05 A2993 RMK AO2 SLP086
T02281050





000
SAUS45 KREV 280555
MTRDRA
METAR KDRA 280553Z AUTO 00000KT 10SM CLR 24/M06 A2992 RMK AO2 SLP083
T02391056 10356 20239 51014





000
SAUS45 KREV 280555
MTRDRA
METAR KDRA 280553Z AUTO 00000KT 10SM CLR 24/M06 A2992 RMK AO2 SLP083
T02391056 10356 20239 51014





000
SAUS45 KREV 280454
MTRDRA
METAR KDRA 280453Z AUTO 03009KT 10SM CLR 26/M06 A2991 RMK AO2 SLP079
T02611061





000
SAUS45 KREV 280454
MTRDRA
METAR KDRA 280453Z AUTO 03009KT 10SM CLR 26/M06 A2991 RMK AO2 SLP079
T02611061





000
SAUS45 KREV 280354
MTRDRA
METAR KDRA 280353Z AUTO 36003KT 10SM CLR 29/M07 A2989 RMK AO2 SLP070
T02891072





000
SAUS45 KREV 280254
MTRDRA
METAR KDRA 280253Z AUTO 23006KT 10SM CLR 31/M09 A2988 RMK AO2 SLP065
T03111094 53003





000
SAUS45 KREV 280254
MTRDRA
METAR KDRA 280253Z AUTO 23006KT 10SM CLR 31/M09 A2988 RMK AO2 SLP065
T03111094 53003





000
SAUS45 KREV 280154
MTRDRA
METAR KDRA 280153Z AUTO 23010KT 10SM CLR 34/M12 A2986 RMK AO2 SLP061
T03391117





000
SAUS45 KREV 280055
MTRDRA
METAR KDRA 280053Z AUTO 25007G15KT 10SM CLR 34/M14 A2986 RMK AO2
SLP058 T03441144





000
SAUS45 KREV 280055
MTRDRA
METAR KDRA 280053Z AUTO 25007G15KT 10SM CLR 34/M14 A2986 RMK AO2
SLP058 T03441144





000
SAUS45 KREV 272355
MTRDRA
METAR KDRA 272353Z AUTO 25011G16KT 10SM CLR 36/M13 A2987 RMK AO2
SLP059 T03561128 10361 20294 56013





000
SAUS45 KREV 272255
MTRDRA
METAR KDRA 272253Z AUTO 23011G17KT 10SM CLR 36/M08 A2988 RMK AO2
SLP062 T03561078





000
SAUS45 KREV 272155
MTRDRA
METAR KDRA 272153Z AUTO 23012G15KT 10SM CLR 34/M05 A2989 RMK AO2
SLP068 T03441050





000
SAUS45 KREV 272054
MTRDRA
METAR KDRA 272053Z AUTO 28006G15KT 10SM CLR 33/M03 A2991 RMK AO2
SLP074 T03331028 58014





000
SAUS45 KREV 271954
MTRDRA
METAR KDRA 271953Z AUTO 27006KT 10SM CLR 33/M03 A2993 RMK AO2 SLP079
T03331028





000
SAUS45 KREV 271856
MTRDRA
METAR KDRA 271853Z AUTO 00000KT 10SM CLR 31/M01 A2994 RMK AO2 SLP084
T03111006





000
SAUS45 KREV 271856
MTRDRA
METAR KDRA 271853Z AUTO 00000KT 10SM CLR 31/M01 A2994 RMK AO2 SLP084
T03111006





000
SAUS45 KREV 271755
MTRDRA
METAR KDRA 271753Z AUTO 23008KT 10SM CLR 30/01 A2995 RMK AO2 SLP090
T03000011 10300 20211 51003





000
SAUS45 KREV 271755
MTRDRA
METAR KDRA 271753Z AUTO 23008KT 10SM CLR 30/01 A2995 RMK AO2 SLP090
T03000011 10300 20211 51003





000
SAUS45 KREV 271655
MTRDRA
METAR KDRA 271653Z AUTO 29004KT 10SM CLR 28/02 A2995 RMK AO2 SLP089
T02780022





000
SAUS45 KREV 271655
MTRDRA
METAR KDRA 271653Z AUTO 29004KT 10SM CLR 28/02 A2995 RMK AO2 SLP089
T02780022





000
SAUS45 KREV 271554
MTRDRA
METAR KDRA 271553Z AUTO 23008KT 10SM CLR 26/03 A2995 RMK AO2 SLP091
T02610033





000
SAUS45 KREV 271454
MTRDRA
METAR KDRA 271453Z AUTO 29006KT 10SM CLR 26/03 A2994 RMK AO2 SLP087
T02560028 51033





000
SAUS45 KREV 271454
MTRDRA
METAR KDRA 271453Z AUTO 29006KT 10SM CLR 26/03 A2994 RMK AO2 SLP087
T02560028 51033





000
SAUS45 KREV 271354
MTRDRA
METAR KDRA 271353Z AUTO 33006KT 10SM CLR 23/04 A2993 RMK AO2 SLP082
T02280039





000
SAUS45 KREV 271254
MTRDRA
METAR KDRA 271253Z AUTO 29009KT 10SM CLR 23/04 A2989 RMK AO2 PRESRR
SLP068 T02280039





000
SAUS45 KREV 271254
MTRDRA
METAR KDRA 271253Z AUTO 29009KT 10SM CLR 23/04 A2989 RMK AO2 PRESRR
SLP068 T02280039





    US Dept of Commerce
    National Oceanic and Atmospheric Administration
    National Weather Service
    1325 East West Highway
    Silver Spring, MD 20910
    Page Author: NWS Internet Services Team
Disclaimer
Information Quality
Credits
Glossary
Privacy Policy
Freedom of Information Act (FOIA)
About Us
Career Opportunities